createdAt,value
2018-07-12T00:02:08.283Z,100981.67
2018-07-12T00:04:35.686Z,100975.89
2018-07-12T00:07:04.526Z,100970.44
2018-07-12T00:09:32.491Z,100966.24
2018-07-12T00:11:59.882Z,100962.94
2018-07-12T00:14:27.297Z,100966.69
2018-07-12T00:16:55.551Z,100965.75
2018-07-12T00:19:23.588Z,100960.20
2018-07-12T00:21:50.994Z,100965.34
2018-07-12T00:24:18.386Z,100964.55
2018-07-12T00:26:45.971Z,100962.97
2018-07-12T00:29:13.766Z,100961.20
2018-07-12T00:31:41.138Z,100958.38
2018-07-12T00:34:09.115Z,100961.98
2018-07-12T00:36:36.512Z,100954.63
2018-07-12T00:39:04.974Z,100958.63
2018-07-12T00:41:32.382Z,100954.42
2018-07-12T00:43:59.770Z,100951.12
2018-07-12T00:46:27.211Z,100955.61
2018-07-12T00:48:54.885Z,100949.34
2018-07-12T00:51:22.287Z,100948.21
2018-07-12T00:53:49.661Z,100953.31
2018-07-12T00:56:18.276Z,100946.70
2018-07-12T00:58:45.998Z,100946.92
2018-07-12T01:01:13.735Z,100939.88
2018-07-12T01:03:41.098Z,100944.14
2018-07-12T01:06:09.014Z,100942.49
2018-07-12T01:08:36.847Z,100947.89
2018-07-12T01:11:04.239Z,100939.97
2018-07-12T01:13:31.641Z,100948.81
2018-07-12T01:15:59.987Z,100947.00
2018-07-12T01:18:27.838Z,100951.74
2018-07-12T01:20:55.205Z,100945.56
2018-07-12T01:23:22.586Z,100935.16
2018-07-12T01:25:50.537Z,100942.27
2018-07-12T01:28:17.974Z,100951.14
2018-07-12T01:30:46.879Z,100948.96
2018-07-12T01:33:14.371Z,100943.70
2018-07-12T01:35:42.823Z,100946.92
2018-07-12T01:38:10.229Z,100944.88
2018-07-12T01:40:37.789Z,100941.22
2018-07-12T01:43:05.164Z,100947.88
2018-07-12T01:45:32.543Z,100944.80
2018-07-12T01:47:59.995Z,100947.92
2018-07-12T01:50:27.377Z,100946.22
2018-07-12T01:52:55.139Z,100941.05
2018-07-12T01:55:22.500Z,100944.92
2018-07-12T01:57:50.669Z,100946.79
2018-07-12T02:00:18.061Z,100941.91
2018-07-12T02:02:45.655Z,100946.57
2018-07-12T02:05:13.071Z,100951.53
2018-07-12T02:07:41.210Z,100951.40
2018-07-12T02:10:08.578Z,100951.23
2018-07-12T02:12:35.985Z,100952.75
2018-07-12T02:15:04.437Z,100945.87
2018-07-12T02:17:32.323Z,100945.19
2018-07-12T02:20:00.764Z,100940.86
2018-07-12T02:22:28.179Z,100938.37
2018-07-12T02:24:55.592Z,100938.84
2018-07-12T02:27:23.437Z,100940.94
2018-07-12T02:29:50.827Z,100932.21
2018-07-12T02:32:18.237Z,100936.50
2018-07-12T02:34:48.303Z,100938.88
2018-07-12T02:37:15.839Z,100937.77
2018-07-12T02:39:43.218Z,100941.20
2018-07-12T02:42:10.642Z,100937.07
2018-07-12T02:44:38.038Z,100932.42
2018-07-12T02:47:05.495Z,100927.77
2018-07-12T02:49:32.891Z,100938.47
2018-07-12T02:52:01.043Z,100940.27
2018-07-12T02:54:28.440Z,100942.44
2018-07-12T02:56:56.592Z,100941.13
2018-07-12T02:59:23.999Z,100945.26
2018-07-12T03:01:51.382Z,100942.10
2018-07-12T03:04:18.786Z,100941.42
2018-07-12T03:06:46.814Z,100938.08
2018-07-12T03:09:15.320Z,100933.03
2018-07-12T03:11:42.687Z,100924.80
2018-07-12T03:14:10.097Z,100924.19
2018-07-12T03:16:38.083Z,100919.70
2018-07-12T03:19:06.350Z,100913.67
2018-07-12T03:21:33.725Z,100919.78
2018-07-12T03:24:01.878Z,100916.16
2018-07-12T03:26:30.060Z,100919.25
2018-07-12T03:28:57.442Z,100915.19
2018-07-12T03:31:24.806Z,100920.06
2018-07-12T03:33:52.638Z,100922.23
2018-07-12T03:36:20.045Z,100927.92
2018-07-12T03:38:47.442Z,100922.77
2018-07-12T03:41:15.237Z,100920.03
2018-07-12T03:43:42.648Z,100918.05
2018-07-12T03:46:10.091Z,100911.20
2018-07-12T03:48:37.502Z,100911.64
2018-07-12T03:51:04.943Z,100904.25
2018-07-12T03:53:33.372Z,100906.30
2018-07-12T03:56:01.174Z,100909.19
2018-07-12T03:58:28.569Z,100904.77
2018-07-12T04:00:55.971Z,100909.27
2018-07-12T04:03:23.418Z,100900.14
2018-07-12T04:05:50.804Z,100900.11
2018-07-12T04:08:18.881Z,100898.47
2018-07-12T04:10:47.237Z,100894.66
2018-07-12T04:13:14.747Z,100894.56
2018-07-12T04:15:42.190Z,100893.34
2018-07-12T04:18:10.167Z,100895.90
2018-07-12T04:20:37.574Z,100897.75
2018-07-12T04:23:05.446Z,100898.53
2018-07-12T04:25:32.841Z,100895.10
2018-07-12T04:28:00.798Z,100893.56
2018-07-12T04:30:28.209Z,100892.31
2018-07-12T04:32:55.590Z,100891.92
2018-07-12T04:35:23.315Z,100893.68
2018-07-12T04:37:50.791Z,100897.55
2018-07-12T04:40:18.124Z,100897.98
2018-07-12T04:42:45.841Z,100892.42
2018-07-12T04:45:13.238Z,100893.84
2018-07-12T04:47:40.683Z,100894.30
2018-07-12T04:50:08.138Z,100899.09
2018-07-12T04:52:36.150Z,100894.87
2018-07-12T04:55:03.513Z,100899.28
2018-07-12T04:57:31.281Z,100899.13
2018-07-12T04:59:58.646Z,100911.45
2018-07-12T05:02:26.028Z,100908.33
2018-07-12T05:04:53.437Z,100916.29
2018-07-12T05:07:21.199Z,100910.95
2018-07-12T05:09:49.245Z,100917.21
2018-07-12T05:12:17.100Z,100913.53
2018-07-12T05:14:44.476Z,100907.47
2018-07-12T05:17:12.298Z,100902.29
2018-07-12T05:19:40.054Z,100903.67
2018-07-12T05:22:07.877Z,100905.66
2018-07-12T05:24:35.248Z,100903.46
2018-07-12T05:27:03.220Z,100903.31
2018-07-12T05:29:30.614Z,100897.98
2018-07-12T05:31:57.980Z,100897.97
2018-07-12T05:34:26.082Z,100901.39
2018-07-12T05:36:57.714Z,100897.55
2018-07-12T05:39:26.571Z,100904.91
2018-07-12T05:41:55.364Z,100901.25
2018-07-12T05:44:24.120Z,100893.70
2018-07-12T05:46:52.972Z,100900.22
2018-07-12T05:49:21.788Z,100901.53
2018-07-12T05:51:51.379Z,100896.17
2018-07-12T05:54:20.961Z,100905.19
2018-07-12T05:56:50.551Z,100901.97
2018-07-12T05:59:20.258Z,100912.70
2018-07-12T06:02:00.066Z,100913.12
2018-07-12T06:04:28.818Z,100907.86
2018-07-12T06:06:58.231Z,100903.84
2018-07-12T06:09:27.903Z,100905.20
2018-07-12T06:11:56.686Z,100902.77
2018-07-12T06:14:25.481Z,100903.70
2018-07-12T06:16:54.767Z,100901.13
2018-07-12T06:19:24.990Z,100910.91
2018-07-12T06:21:53.798Z,100911.30
2018-07-12T06:24:23.042Z,100913.42
2018-07-12T06:26:52.618Z,100912.67
2018-07-12T06:29:21.635Z,100913.86
2018-07-12T06:31:50.878Z,100921.88
2018-07-12T06:34:20.394Z,100911.62
2018-07-12T06:36:49.382Z,100910.48
2018-07-12T06:39:18.295Z,100911.87
2018-07-12T06:41:47.096Z,100914.42
2018-07-12T06:44:15.885Z,100911.84
2018-07-12T06:46:44.806Z,100907.56
2018-07-12T06:49:13.616Z,100915.79
2018-07-12T06:51:43.398Z,100908.97
2018-07-12T06:54:12.181Z,100911.97
2018-07-12T06:56:41.664Z,100913.09
2018-07-12T06:59:10.406Z,100911.75
2018-07-12T07:01:39.511Z,100913.88
2018-07-12T07:04:08.318Z,100917.35
2018-07-12T07:06:37.834Z,100910.71
2018-07-12T07:09:09.142Z,100914.21
2018-07-12T07:11:38.365Z,100908.73
2018-07-12T07:14:07.204Z,100906.00
2018-07-12T07:16:36.691Z,100898.66
2018-07-12T07:19:06.115Z,100896.95
2018-07-12T07:21:35.064Z,100898.83
2018-07-12T07:24:04.858Z,100893.41
2018-07-12T07:26:34.302Z,100890.48
2018-07-12T07:29:03.110Z,100888.11
2018-07-12T07:31:31.979Z,100889.03
2018-07-12T07:34:01.494Z,100884.55
2018-07-12T07:36:30.297Z,100886.52
2018-07-12T07:38:59.089Z,100887.45
2018-07-12T07:41:27.906Z,100885.88
2018-07-12T07:43:56.715Z,100880.75
2018-07-12T07:46:25.631Z,100876.66
2018-07-12T07:48:54.492Z,100870.12
2018-07-12T07:51:23.872Z,100869.02
2018-07-12T07:53:52.719Z,100868.75
2018-07-12T07:56:22.619Z,100870.40
2018-07-12T07:58:58.129Z,100868.23
2018-07-12T08:01:27.047Z,100865.02
2018-07-12T08:03:55.845Z,100871.84
2018-07-12T08:06:25.322Z,100871.84
2018-07-12T08:08:54.552Z,100874.86
2018-07-12T08:11:23.410Z,100867.47
2018-07-12T08:13:52.336Z,100860.37
2018-07-12T08:16:21.703Z,100869.95
2018-07-12T08:18:51.544Z,100863.66
2018-07-12T08:21:21.151Z,100855.73
2018-07-12T08:23:51.671Z,100857.63
2018-07-12T08:26:20.758Z,100850.25
2018-07-12T08:28:51.518Z,100844.77
2018-07-12T08:31:20.730Z,100841.79
2018-07-12T08:33:50.378Z,100833.32
2018-07-12T08:36:19.459Z,100834.92
2018-07-12T08:38:48.299Z,100846.41
2018-07-12T08:41:17.143Z,100834.38
2018-07-12T08:43:45.902Z,100832.74
2018-07-12T08:46:14.813Z,100822.36
2018-07-12T08:48:43.580Z,100828.40
2018-07-12T08:51:12.390Z,100830.59
2018-07-12T08:53:41.863Z,100834.64
2018-07-12T08:56:11.451Z,100832.73
2018-07-12T08:58:40.213Z,100835.98
2018-07-12T09:01:08.995Z,100825.27
2018-07-12T09:03:37.893Z,100824.12
2018-07-12T09:06:07.716Z,100823.01
2018-07-12T09:08:36.926Z,100824.31
2018-07-12T09:11:05.700Z,100825.91
2018-07-12T09:13:34.442Z,100829.48
2018-07-12T09:16:03.570Z,100823.19
2018-07-12T09:18:33.021Z,100824.27
2018-07-12T09:21:01.803Z,100823.44
2018-07-12T09:23:31.217Z,100823.10
2018-07-12T09:25:59.955Z,100819.52
2018-07-12T09:28:29.331Z,100812.36
2018-07-12T09:30:58.174Z,100816.19
2018-07-12T09:33:27.690Z,100814.80
2018-07-12T09:35:56.471Z,100821.61
2018-07-12T09:38:58.258Z,100818.52
2018-07-12T09:41:27.026Z,100820.89
2018-07-12T09:43:55.967Z,100819.25
2018-07-12T09:46:24.766Z,100823.17
2018-07-12T09:48:53.621Z,100819.14
2018-07-12T09:51:22.681Z,100819.63
2018-07-12T09:53:51.740Z,100828.31
2018-07-12T09:56:21.962Z,100823.97
2018-07-12T09:58:51.008Z,100826.63
2018-07-12T10:01:25.413Z,100825.55
2018-07-12T10:03:54.698Z,100819.98
2018-07-12T10:06:32.152Z,100814.40
2018-07-12T10:09:06.638Z,100819.30
2018-07-12T10:11:40.494Z,100811.38
2018-07-12T10:15:15.689Z,100814.67
2018-07-12T10:17:56.427Z,100811.68
2018-07-12T10:20:25.809Z,100805.52
2018-07-12T10:22:55.330Z,100806.50
2018-07-12T10:25:24.199Z,100813.02
2018-07-12T10:27:53.994Z,100804.66
2018-07-12T10:30:22.753Z,100811.11
2018-07-12T10:32:51.614Z,100814.55
2018-07-12T10:35:21.284Z,100807.38
2018-07-12T10:37:50.389Z,100802.18
2018-07-12T10:40:19.927Z,100800.86
2018-07-12T10:42:48.937Z,100799.41
2018-07-12T10:45:17.837Z,100800.81
2018-07-12T10:47:46.727Z,100798.28
2018-07-12T10:50:15.710Z,100796.01
2018-07-12T10:52:44.943Z,100785.30
2018-07-12T10:55:13.671Z,100791.52
2018-07-12T10:57:42.885Z,100791.41
2018-07-12T11:00:11.655Z,100793.45
2018-07-12T11:02:40.422Z,100797.33
2018-07-12T11:05:09.216Z,100782.21
2018-07-12T11:07:38.755Z,100784.78
2018-07-12T11:10:07.516Z,100785.19
2018-07-12T11:12:36.259Z,100784.47
2018-07-12T11:15:05.084Z,100774.60
2018-07-12T11:17:35.143Z,100778.58
2018-07-12T11:20:04.694Z,100769.97
2018-07-12T11:22:34.148Z,100781.14
2018-07-12T11:25:02.926Z,100775.13
2018-07-12T11:27:32.233Z,100774.20
2018-07-12T11:30:00.971Z,100777.53
2018-07-12T11:32:29.713Z,100771.00
2018-07-12T11:34:58.976Z,100770.38
2018-07-12T11:37:28.521Z,100769.94
2018-07-12T11:39:57.278Z,100768.53
2018-07-12T11:42:26.103Z,100760.32
2018-07-12T11:44:54.855Z,100768.55
2018-07-12T11:47:23.714Z,100765.87
2018-07-12T11:49:52.794Z,100761.14
2018-07-12T11:52:22.564Z,100757.68
2018-07-12T11:54:51.570Z,100754.31
2018-07-12T11:57:21.683Z,100749.02
2018-07-12T11:59:51.296Z,100742.55
2018-07-12T12:02:20.494Z,100746.38
2018-07-12T12:04:49.742Z,100736.62
2018-07-12T12:07:19.549Z,100732.69
2018-07-12T12:09:48.648Z,100728.13
2018-07-12T12:12:18.515Z,100736.52
2018-07-12T12:14:47.272Z,100717.80
2018-07-12T12:17:16.954Z,100733.45
2018-07-12T12:19:46.202Z,100727.16
2018-07-12T12:22:15.971Z,100723.46
2018-07-12T12:24:44.734Z,100722.09
2018-07-12T12:27:14.241Z,100717.84
2018-07-12T12:29:42.977Z,100722.91
2018-07-12T12:32:11.768Z,100716.64
2018-07-12T12:34:41.397Z,100715.48
2018-07-12T12:37:10.241Z,100717.29
2018-07-12T12:39:39.002Z,100709.61
2018-07-12T12:42:07.839Z,100706.91
2018-07-12T12:44:36.630Z,100696.38
2018-07-12T12:47:05.527Z,100699.64
2018-07-12T12:49:34.321Z,100691.36
2018-07-12T12:52:03.708Z,100690.20
2018-07-12T12:54:32.470Z,100680.94
2018-07-12T12:57:01.915Z,100677.94
2018-07-12T12:59:30.676Z,100675.08
2018-07-12T13:01:59.507Z,100680.57
2018-07-12T13:04:28.273Z,100674.02
2018-07-12T13:06:57.719Z,100674.45
2018-07-12T13:09:26.462Z,100667.94
2018-07-12T13:11:55.981Z,100666.45
2018-07-12T13:14:24.749Z,100666.96
2018-07-12T13:16:53.974Z,100661.23
2018-07-12T13:19:23.302Z,100659.45
2018-07-12T13:21:52.164Z,100666.59
2018-07-12T13:24:21.727Z,100660.06
2018-07-12T13:26:51.420Z,100658.44
2018-07-12T13:29:20.792Z,100647.77
2018-07-12T13:31:49.833Z,100658.51
2018-07-12T13:34:19.782Z,100653.57
2018-07-12T13:36:48.833Z,100651.02
2018-07-12T13:39:18.210Z,100652.03
2018-07-12T13:41:47.043Z,100651.22
2018-07-12T13:44:19.824Z,100650.22
2018-07-12T13:46:49.788Z,100656.36
2018-07-12T13:49:18.862Z,100642.52
2018-07-12T13:51:49.906Z,100643.28
2018-07-12T13:54:19.489Z,100638.54
2018-07-12T13:56:49.833Z,100637.73
2018-07-12T13:59:18.743Z,100636.61
2018-07-12T14:01:47.647Z,100634.80
2018-07-12T14:04:16.500Z,100644.30
2018-07-12T14:06:45.990Z,100645.28
2018-07-12T14:09:14.739Z,100647.63
2018-07-12T14:11:43.464Z,100640.63
2018-07-12T14:14:12.914Z,100644.80
2018-07-12T14:16:42.689Z,100634.11
2018-07-12T14:19:12.260Z,100636.20
2018-07-12T14:21:41.070Z,100643.81
2018-07-12T14:24:10.567Z,100645.94
2018-07-12T14:26:40.112Z,100646.68
2018-07-12T14:29:08.955Z,100644.64
2018-07-12T14:31:37.711Z,100638.25
2018-07-12T14:34:07.560Z,100633.84
2018-07-12T14:36:36.316Z,100632.91
2018-07-12T14:39:06.842Z,100640.57
2018-07-12T14:41:35.685Z,100642.14
2018-07-12T14:44:04.467Z,100639.45
2018-07-12T14:46:33.362Z,100632.92
2018-07-12T14:49:02.358Z,100633.74
2018-07-12T14:51:32.414Z,100641.09
2018-07-12T14:54:01.222Z,100636.20
2018-07-12T14:56:32.013Z,100632.52
2018-07-12T14:59:03.588Z,100629.67
2018-07-12T15:01:32.436Z,100635.52
2018-07-12T15:04:01.188Z,100633.64
2018-07-12T15:06:30.559Z,100632.98
2018-07-12T15:08:59.377Z,100626.32
2018-07-12T15:11:28.158Z,100625.29
2018-07-12T15:13:58.067Z,100624.98
2018-07-12T15:16:27.308Z,100621.22
2018-07-12T15:18:56.736Z,100614.70
2018-07-12T15:21:25.511Z,100616.58
2018-07-12T15:23:54.981Z,100617.70
2018-07-12T15:26:23.748Z,100616.95
2018-07-12T15:28:52.992Z,100614.14
2018-07-12T15:31:21.731Z,100608.13
2018-07-12T15:33:51.319Z,100619.64
2018-07-12T15:36:20.558Z,100610.70
2018-07-12T15:38:50.364Z,100609.17
2018-07-12T15:41:19.571Z,100615.20
2018-07-12T15:43:48.762Z,100601.48
2018-07-12T15:46:17.663Z,100609.45
2018-07-12T15:48:46.515Z,100603.58
2018-07-12T15:51:15.324Z,100604.53
2018-07-12T15:53:45.027Z,100604.50
2018-07-12T15:56:14.414Z,100602.35
2018-07-12T15:58:43.276Z,100606.66
2018-07-12T16:01:13.299Z,100599.55
2018-07-12T16:03:42.085Z,100606.86
2018-07-12T16:06:11.427Z,100607.39
2018-07-12T16:08:40.190Z,100612.02
2018-07-12T16:11:08.956Z,100601.84
2018-07-12T16:13:38.272Z,100606.82
2018-07-12T16:16:07.690Z,100603.02
2018-07-12T16:18:37.298Z,100605.45
2018-07-12T16:21:06.192Z,100600.24
2018-07-12T16:23:35.549Z,100603.00
2018-07-12T16:26:04.338Z,100602.30
2018-07-12T16:28:33.586Z,100596.81
2018-07-12T16:31:02.683Z,100601.22
2018-07-12T16:33:32.166Z,100599.06
2018-07-12T16:36:00.977Z,100598.73
2018-07-12T16:38:29.766Z,100606.75
2018-07-12T16:40:58.611Z,100618.89
2018-07-12T16:43:27.457Z,100612.54
2018-07-12T16:45:56.337Z,100611.78
2018-07-12T16:48:25.546Z,100610.47
2018-07-12T16:50:54.350Z,100601.23
2018-07-12T16:53:24.296Z,100601.88
2018-07-12T16:55:54.138Z,100611.16
2018-07-12T16:58:22.965Z,100600.22
2018-07-12T17:00:51.765Z,100604.84
2018-07-12T17:03:21.423Z,100603.78
2018-07-12T17:05:51.568Z,100601.08
2018-07-12T17:08:20.587Z,100606.08
2018-07-12T17:10:49.606Z,100602.77
2018-07-12T17:13:19.676Z,100598.48
2018-07-12T17:15:48.674Z,100600.95
2018-07-12T17:18:17.579Z,100601.22
2018-07-12T17:20:46.417Z,100605.38
2018-07-12T17:23:16.010Z,100612.48
2018-07-12T17:25:44.819Z,100609.19
2018-07-12T17:28:14.509Z,100604.14
2018-07-12T17:30:43.315Z,100611.44
2018-07-12T17:33:12.150Z,100603.46
2018-07-12T17:35:42.440Z,100609.23
2018-07-12T17:38:11.215Z,100611.49
2018-07-12T17:40:39.969Z,100614.27
2018-07-12T17:43:08.822Z,100614.00
2018-07-12T17:45:37.617Z,100620.42
2018-07-12T17:48:06.616Z,100623.08
2018-07-12T17:50:35.449Z,100622.77
2018-07-12T17:53:05.376Z,100626.71
2018-07-12T17:55:34.643Z,100627.03
2018-07-12T17:58:03.406Z,100632.74
2018-07-12T18:00:32.250Z,100638.28
2018-07-12T18:03:01.587Z,100638.88
2018-07-12T18:05:30.508Z,100632.34
2018-07-12T18:07:59.906Z,100638.13
2018-07-12T18:10:28.730Z,100646.84
2018-07-12T18:12:58.542Z,100649.68
2018-07-12T18:15:27.372Z,100647.22
2018-07-12T18:17:56.167Z,100651.69
2018-07-12T18:20:24.989Z,100648.30
2018-07-12T18:22:55.139Z,100650.72
2018-07-12T18:25:24.031Z,100652.87
2018-07-12T18:27:53.398Z,100653.44
2018-07-12T18:30:22.222Z,100654.66
2018-07-12T18:32:51.098Z,100660.23
2018-07-12T18:35:21.428Z,100660.53
2018-07-12T18:37:50.413Z,100665.22
2018-07-12T18:40:19.595Z,100663.95
2018-07-12T18:42:48.605Z,100666.63
2018-07-12T18:45:17.517Z,100671.06
2018-07-12T18:47:46.468Z,100677.73
2018-07-12T18:50:15.283Z,100679.44
2018-07-12T18:52:44.818Z,100680.05
2018-07-12T18:55:14.027Z,100684.14
2018-07-12T18:57:43.486Z,100690.67
2018-07-12T19:00:12.239Z,100694.62
2018-07-12T19:02:41.581Z,100694.36
2018-07-12T19:05:10.385Z,100696.00
2018-07-12T19:07:39.709Z,100689.84
2018-07-12T19:10:08.478Z,100692.64
2018-07-12T19:12:37.739Z,100693.76
2018-07-12T19:15:06.613Z,100693.45
2018-07-12T19:17:35.325Z,100696.94
2018-07-12T19:20:04.451Z,100703.23
2018-07-12T19:22:33.872Z,100700.70
2018-07-12T19:25:02.611Z,100707.25
2018-07-12T19:27:31.794Z,100709.06
2018-07-12T19:30:00.533Z,100709.19
2018-07-12T19:32:29.297Z,100718.61
2018-07-12T19:34:58.771Z,100716.82
2018-07-12T19:37:27.479Z,100721.03
2018-07-12T19:39:56.230Z,100720.87
2018-07-12T19:42:25.048Z,100719.83
2018-07-12T19:44:53.795Z,100715.28
2018-07-12T19:47:22.754Z,100710.98
2018-07-12T19:49:52.056Z,100707.23
2018-07-12T19:52:21.806Z,100712.22
2018-07-12T19:54:51.462Z,100711.42
2018-07-12T19:57:21.362Z,100707.89
2018-07-12T19:59:50.414Z,100711.22
2018-07-12T20:02:20.606Z,100704.16
2018-07-12T20:04:50.306Z,100710.18
2018-07-12T20:07:20.212Z,100713.77
2018-07-12T20:09:49.355Z,100714.04
2018-07-12T20:12:19.214Z,100716.25
2018-07-12T20:14:48.283Z,100720.92
2018-07-12T20:17:17.094Z,100718.73
2018-07-12T20:19:45.858Z,100720.35
2018-07-12T20:22:15.066Z,100727.73
2018-07-12T20:24:43.777Z,100727.45
2018-07-12T20:27:13.775Z,100723.92
2018-07-12T20:29:42.560Z,100721.46
2018-07-12T20:32:11.322Z,100731.53
2018-07-12T20:34:40.770Z,100735.36
2018-07-12T20:37:09.592Z,100741.36
2018-07-12T20:39:38.320Z,100739.70
2018-07-12T20:42:07.090Z,100738.08
2018-07-12T20:44:35.847Z,100734.52
2018-07-12T20:47:04.686Z,100732.06
2018-07-12T20:49:33.648Z,100732.03
2018-07-12T20:52:04.206Z,100731.99
2018-07-12T20:54:33.799Z,100732.79
2018-07-12T20:57:03.323Z,100726.25
2018-07-12T20:59:32.103Z,100733.58
2018-07-12T21:02:00.879Z,100727.55
2018-07-12T21:04:30.474Z,100731.61
2018-07-12T21:06:59.642Z,100735.42
2018-07-12T21:09:28.373Z,100733.22
2018-07-12T21:11:57.134Z,100728.02
2018-07-12T21:14:25.910Z,100729.64
2018-07-12T21:16:54.664Z,100723.06
2018-07-12T21:19:23.527Z,100726.86
2018-07-12T21:21:52.520Z,100723.54
2018-07-12T21:24:21.972Z,100720.75
2018-07-12T21:26:51.564Z,100731.63
2018-07-12T21:29:20.694Z,100740.05
2018-07-12T21:31:49.834Z,100743.57
2018-07-12T21:34:20.684Z,100740.84
2018-07-12T21:36:49.904Z,100738.37
2018-07-12T21:39:20.308Z,100748.11
2018-07-12T21:41:49.791Z,100745.89
2018-07-12T21:44:19.659Z,100750.20
2018-07-12T21:46:48.948Z,100748.80
2018-07-12T21:49:18.115Z,100741.97
2018-07-12T21:51:49.091Z,100741.10
2018-07-12T21:54:18.085Z,100742.16
2018-07-12T21:56:49.199Z,100743.47
2018-07-12T21:59:18.231Z,100744.23
2018-07-12T22:01:47.061Z,100741.95
2018-07-12T22:04:16.412Z,100747.00
2018-07-12T22:06:58.220Z,100745.30
2018-07-12T22:09:27.046Z,100746.53
2018-07-12T22:11:55.845Z,100745.65
2018-07-12T22:14:24.679Z,100741.22
2018-07-12T22:16:53.541Z,100735.19
2018-07-12T22:19:22.330Z,100727.50
2018-07-12T22:21:52.061Z,100731.54
2018-07-12T22:24:21.786Z,100723.86
2018-07-12T22:26:51.598Z,100726.53
2018-07-12T22:29:21.186Z,100728.89
2018-07-12T22:31:50.708Z,100728.56
2018-07-12T22:34:20.632Z,100721.67
2018-07-12T22:36:50.146Z,100725.66
2018-07-12T22:39:19.086Z,100720.37
2018-07-12T22:41:47.963Z,100712.72
2018-07-12T22:44:16.702Z,100716.42
2018-07-12T22:46:45.566Z,100716.34
2018-07-12T22:49:15.432Z,100719.58
2018-07-12T22:51:45.363Z,100716.25
2018-07-12T22:54:14.095Z,100716.74
2018-07-12T22:56:43.756Z,100712.09
2018-07-12T22:59:12.611Z,100708.80
2018-07-12T23:01:41.368Z,100711.96
2018-07-12T23:04:10.735Z,100711.92
2018-07-12T23:06:40.165Z,100714.33
2018-07-12T23:09:08.907Z,100723.20
2018-07-12T23:11:37.650Z,100717.69
2018-07-12T23:14:06.446Z,100709.25
2018-07-12T23:16:35.292Z,100709.73
2018-07-12T23:19:04.166Z,100710.67
2018-07-12T23:21:32.965Z,100713.90
2018-07-12T23:24:02.964Z,100709.95
2018-07-12T23:26:32.666Z,100705.55
2018-07-12T23:29:01.384Z,100706.59
2018-07-12T23:31:30.137Z,100714.10
2018-07-12T23:33:59.640Z,100713.77
2018-07-12T23:36:28.380Z,100712.92
2018-07-12T23:38:57.122Z,100723.47
2018-07-12T23:41:25.910Z,100720.38
2018-07-12T23:43:54.646Z,100722.62
2018-07-12T23:46:23.493Z,100720.27
2018-07-12T23:48:52.424Z,100723.34
2018-07-12T23:51:21.451Z,100720.80
2018-07-12T23:53:51.058Z,100724.76
2018-07-12T23:56:22.100Z,100723.33
2018-07-12T23:58:51.814Z,100726.56
